sensor_id;sensor_type;location;lat;lon;timestamp;temperature;humidity
20398;DHT22;10358;49.590;11.030;2023-03-14T00:01:21;8.80;99.90
20398;DHT22;10358;49.590;11.030;2023-03-14T00:03:46;8.70;99.90
20398;DHT22;10358;49.590;11.030;2023-03-14T00:06:13;8.70;99.90
20398;DHT22;10358;49.590;11.030;2023-03-14T00:08:39;8.70;99.90
20398;DHT22;10358;49.590;11.030;2023-03-14T00:11:13;8.70;99.90
20398;DHT22;10358;49.590;11.030;2023-03-14T00:13:39;8.70;99.90
20398;DHT22;10358;49.590;11.030;2023-03-14T00:16:11;8.70;99.90
20398;DHT22;10358;49.590;11.030;2023-03-14T00:18:37;8.80;99.90
20398;DHT22;10358;49.590;11.030;2023-03-14T00:21:04;8.80;99.90
20398;DHT22;10358;49.590;11.030;2023-03-14T00:23:31;8.80;99.90
20398;DHT22;10358;49.590;11.030;2023-03-14T00:26:05;8.80;99.90
20398;DHT22;10358;49.590;11.030;2023-03-14T00:28:31;8.80;99.90
20398;DHT22;10358;49.590;11.030;2023-03-14T00:30:57;8.80;99.90
20398;DHT22;10358;49.590;11.030;2023-03-14T00:33:22;8.80;99.90
20398;DHT22;10358;49.590;11.030;2023-03-14T00:35:55;8.70;99.90
20398;DHT22;10358;49.590;11.030;2023-03-14T00:38:22;8.80;99.90
20398;DHT22;10358;49.590;11.030;2023-03-14T00:40:47;8.70;99.90
20398;DHT22;10358;49.590;11.030;2023-03-14T00:43:16;8.80;99.90
20398;DHT22;10358;49.590;11.030;2023-03-14T00:45:41;8.70;99.90
20398;DHT22;10358;49.590;11.030;2023-03-14T00:48:07;8.70;99.90
20398;DHT22;10358;49.590;11.030;2023-03-14T00:50:33;8.70;99.90
20398;DHT22;10358;49.590;11.030;2023-03-14T00:52:58;8.70;99.90
20398;DHT22;10358;49.590;11.030;2023-03-14T00:55:24;8.70;99.90
20398;DHT22;10358;49.590;11.030;2023-03-14T00:57:50;8.70;99.90
20398;DHT22;10358;49.590;11.030;2023-03-14T01:00:15;8.70;99.90
20398;DHT22;10358;49.590;11.030;2023-03-14T01:02:41;8.70;99.90
20398;DHT22;10358;49.590;11.030;2023-03-14T01:05:07;8.70;99.90
20398;DHT22;10358;49.590;11.030;2023-03-14T01:07:33;8.70;99.90
20398;DHT22;10358;49.590;11.030;2023-03-14T01:09:58;8.70;99.90
20398;DHT22;10358;49.590;11.030;2023-03-14T01:12:24;8.70;99.90
20398;DHT22;10358;49.590;11.030;2023-03-14T01:14:49;8.70;99.90
20398;DHT22;10358;49.590;11.030;2023-03-14T01:17:15;8.80;99.90
20398;DHT22;10358;49.590;11.030;2023-03-14T01:19:41;8.70;99.90
20398;DHT22;10358;49.590;11.030;2023-03-14T01:22:07;8.80;99.90
20398;DHT22;10358;49.590;11.030;2023-03-14T01:24:32;8.80;99.90
20398;DHT22;10358;49.590;11.030;2023-03-14T01:26:58;8.80;99.90
20398;DHT22;10358;49.590;11.030;2023-03-14T01:29:23;8.80;99.90
20398;DHT22;10358;49.590;11.030;2023-03-14T01:31:49;8.70;99.90
20398;DHT22;10358;49.590;11.030;2023-03-14T01:34:14;8.70;99.90
20398;DHT22;10358;49.590;11.030;2023-03-14T01:36:40;8.70;99.90
20398;DHT22;10358;49.590;11.030;2023-03-14T01:39:05;8.70;99.90
20398;DHT22;10358;49.590;11.030;2023-03-14T01:41:31;8.70;99.90
20398;DHT22;10358;49.590;11.030;2023-03-14T01:43:57;8.70;99.90
20398;DHT22;10358;49.590;11.030;2023-03-14T01:46:29;8.70;99.90
20398;DHT22;10358;49.590;11.030;2023-03-14T01:49:01;8.70;99.90
20398;DHT22;10358;49.590;11.030;2023-03-14T01:51:31;8.80;99.90
20398;DHT22;10358;49.590;11.030;2023-03-14T01:54:04;8.80;99.90
20398;DHT22;10358;49.590;11.030;2023-03-14T01:56:31;8.80;99.90
20398;DHT22;10358;49.590;11.030;2023-03-14T01:58:58;8.80;99.90
20398;DHT22;10358;49.590;11.030;2023-03-14T02:01:24;8.80;99.90
20398;DHT22;10358;49.590;11.030;2023-03-14T02:03:54;8.80;99.90
20398;DHT22;10358;49.590;11.030;2023-03-14T02:06:24;8.80;99.90
20398;DHT22;10358;49.590;11.030;2023-03-14T02:08:51;8.80;99.90
20398;DHT22;10358;49.590;11.030;2023-03-14T02:11:17;8.80;99.90
20398;DHT22;10358;49.590;11.030;2023-03-14T02:13:44;8.80;99.90
20398;DHT22;10358;49.590;11.030;2023-03-14T02:16:10;8.80;99.90
20398;DHT22;10358;49.590;11.030;2023-03-14T02:18:36;8.80;99.90
20398;DHT22;10358;49.590;11.030;2023-03-14T02:21:34;8.80;99.90
20398;DHT22;10358;49.590;11.030;2023-03-14T02:24:13;8.80;99.90
20398;DHT22;10358;49.590;11.030;2023-03-14T02:29:27;8.70;99.90
20398;DHT22;10358;49.590;11.030;2023-03-14T02:31:53;8.80;99.90
20398;DHT22;10358;49.590;11.030;2023-03-14T02:34:19;8.70;99.90
20398;DHT22;10358;49.590;11.030;2023-03-14T02:36:44;8.70;99.90
20398;DHT22;10358;49.590;11.030;2023-03-14T02:39:15;8.70;99.90
20398;DHT22;10358;49.590;11.030;2023-03-14T02:41:44;8.70;99.90
20398;DHT22;10358;49.590;11.030;2023-03-14T02:44:11;8.70;99.90
20398;DHT22;10358;49.590;11.030;2023-03-14T02:46:37;8.70;99.90
20398;DHT22;10358;49.590;11.030;2023-03-14T02:49:08;8.70;99.90
20398;DHT22;10358;49.590;11.030;2023-03-14T02:51:35;8.70;99.90
20398;DHT22;10358;49.590;11.030;2023-03-14T02:54:01;8.70;99.90
20398;DHT22;10358;49.590;11.030;2023-03-14T02:56:27;8.70;99.90
20398;DHT22;10358;49.590;11.030;2023-03-14T02:58:52;8.70;99.90
20398;DHT22;10358;49.590;11.030;2023-03-14T03:01:18;8.70;99.90
20398;DHT22;10358;49.590;11.030;2023-03-14T03:03:44;8.70;99.90
20398;DHT22;10358;49.590;11.030;2023-03-14T03:06:10;8.60;99.90
20398;DHT22;10358;49.590;11.030;2023-03-14T03:08:36;8.60;99.90
20398;DHT22;10358;49.590;11.030;2023-03-14T03:11:02;8.60;99.90
20398;DHT22;10358;49.590;11.030;2023-03-14T03:13:28;8.60;99.90
20398;DHT22;10358;49.590;11.030;2023-03-14T03:15:54;8.60;99.90
20398;DHT22;10358;49.590;11.030;2023-03-14T03:18:19;8.60;99.90
20398;DHT22;10358;49.590;11.030;2023-03-14T03:20:45;8.60;99.90
20398;DHT22;10358;49.590;11.030;2023-03-14T03:23:11;8.60;99.90
20398;DHT22;10358;49.590;11.030;2023-03-14T03:25:37;8.60;99.90
20398;DHT22;10358;49.590;11.030;2023-03-14T03:28:02;8.60;99.90
20398;DHT22;10358;49.590;11.030;2023-03-14T03:30:41;8.60;99.90
20398;DHT22;10358;49.590;11.030;2023-03-14T03:33:07;8.60;99.90
20398;DHT22;10358;49.590;11.030;2023-03-14T03:35:33;8.60;99.90
20398;DHT22;10358;49.590;11.030;2023-03-14T03:37:59;8.50;99.90
20398;DHT22;10358;49.590;11.030;2023-03-14T03:40:24;8.50;99.90
20398;DHT22;10358;49.590;11.030;2023-03-14T03:42:51;8.60;99.90
20398;DHT22;10358;49.590;11.030;2023-03-14T03:45:16;8.50;99.90
20398;DHT22;10358;49.590;11.030;2023-03-14T03:47:42;8.50;99.90
20398;DHT22;10358;49.590;11.030;2023-03-14T03:50:08;8.50;99.90
20398;DHT22;10358;49.590;11.030;2023-03-14T03:52:33;8.50;99.90
20398;DHT22;10358;49.590;11.030;2023-03-14T03:54:59;8.50;99.90
20398;DHT22;10358;49.590;11.030;2023-03-14T03:57:25;8.50;99.90
20398;DHT22;10358;49.590;11.030;2023-03-14T03:59:50;8.50;99.90
20398;DHT22;10358;49.590;11.030;2023-03-14T04:02:16;8.50;99.90
20398;DHT22;10358;49.590;11.030;2023-03-14T04:04:41;8.50;99.90
20398;DHT22;10358;49.590;11.030;2023-03-14T04:07:07;8.50;99.90
20398;DHT22;10358;49.590;11.030;2023-03-14T04:09:32;8.40;99.90
20398;DHT22;10358;49.590;11.030;2023-03-14T04:11:58;8.40;99.90
20398;DHT22;10358;49.590;11.030;2023-03-14T04:14:23;8.40;99.90
20398;DHT22;10358;49.590;11.030;2023-03-14T04:16:49;8.40;99.90
20398;DHT22;10358;49.590;11.030;2023-03-14T04:19:15;8.40;99.90
20398;DHT22;10358;49.590;11.030;2023-03-14T04:21:40;8.40;99.90
20398;DHT22;10358;49.590;11.030;2023-03-14T04:24:10;8.30;99.90
20398;DHT22;10358;49.590;11.030;2023-03-14T04:26:35;8.30;99.90
20398;DHT22;10358;49.590;11.030;2023-03-14T04:29:01;8.30;99.90
20398;DHT22;10358;49.590;11.030;2023-03-14T04:31:26;8.30;99.90
20398;DHT22;10358;49.590;11.030;2023-03-14T04:33:52;8.30;99.90
20398;DHT22;10358;49.590;11.030;2023-03-14T04:36:17;8.30;99.90
20398;DHT22;10358;49.590;11.030;2023-03-14T04:38:43;8.30;99.90
20398;DHT22;10358;49.590;11.030;2023-03-14T04:41:08;8.30;99.90
20398;DHT22;10358;49.590;11.030;2023-03-14T04:43:34;8.30;99.90
20398;DHT22;10358;49.590;11.030;2023-03-14T04:46:00;8.30;99.90
20398;DHT22;10358;49.590;11.030;2023-03-14T04:48:26;8.30;99.90
20398;DHT22;10358;49.590;11.030;2023-03-14T04:50:52;8.20;99.90
20398;DHT22;10358;49.590;11.030;2023-03-14T04:53:18;8.20;99.90
20398;DHT22;10358;49.590;11.030;2023-03-14T04:55:52;8.20;99.90
20398;DHT22;10358;49.590;11.030;2023-03-14T04:58:18;8.20;99.90
20398;DHT22;10358;49.590;11.030;2023-03-14T05:00:44;8.20;99.90
20398;DHT22;10358;49.590;11.030;2023-03-14T05:03:10;8.20;99.90
20398;DHT22;10358;49.590;11.030;2023-03-14T05:05:36;8.20;99.90
20398;DHT22;10358;49.590;11.030;2023-03-14T05:08:01;8.20;99.90
20398;DHT22;10358;49.590;11.030;2023-03-14T05:10:27;8.20;99.90
20398;DHT22;10358;49.590;11.030;2023-03-14T05:12:53;8.20;99.90
20398;DHT22;10358;49.590;11.030;2023-03-14T05:15:18;8.20;99.90
20398;DHT22;10358;49.590;11.030;2023-03-14T05:17:44;8.20;99.90
20398;DHT22;10358;49.590;11.030;2023-03-14T05:20:10;8.10;99.90
20398;DHT22;10358;49.590;11.030;2023-03-14T05:22:38;8.20;99.90
20398;DHT22;10358;49.590;11.030;2023-03-14T05:25:04;8.10;99.90
20398;DHT22;10358;49.590;11.030;2023-03-14T05:27:30;8.10;99.90
20398;DHT22;10358;49.590;11.030;2023-03-14T05:29:55;8.10;99.90
20398;DHT22;10358;49.590;11.030;2023-03-14T05:32:21;8.10;99.90
20398;DHT22;10358;49.590;11.030;2023-03-14T05:34:46;8.10;99.90
20398;DHT22;10358;49.590;11.030;2023-03-14T05:37:12;8.10;99.90
20398;DHT22;10358;49.590;11.030;2023-03-14T05:39:37;8.10;99.90
20398;DHT22;10358;49.590;11.030;2023-03-14T05:42:03;8.10;99.90
20398;DHT22;10358;49.590;11.030;2023-03-14T05:44:28;8.10;99.90
20398;DHT22;10358;49.590;11.030;2023-03-14T05:46:54;8.10;99.90
20398;DHT22;10358;49.590;11.030;2023-03-14T05:49:19;8.10;99.90
20398;DHT22;10358;49.590;11.030;2023-03-14T05:51:45;8.00;99.90
20398;DHT22;10358;49.590;11.030;2023-03-14T05:54:10;8.10;99.90
20398;DHT22;10358;49.590;11.030;2023-03-14T05:56:36;8.00;99.90
20398;DHT22;10358;49.590;11.030;2023-03-14T05:59:01;8.00;99.90
20398;DHT22;10358;49.590;11.030;2023-03-14T06:01:28;8.00;99.90
20398;DHT22;10358;49.590;11.030;2023-03-14T06:03:54;8.00;99.90
20398;DHT22;10358;49.590;11.030;2023-03-14T06:06:20;8.00;99.90
20398;DHT22;10358;49.590;11.030;2023-03-14T06:08:45;8.00;99.90
20398;DHT22;10358;49.590;11.030;2023-03-14T06:11:11;8.00;99.90
20398;DHT22;10358;49.590;11.030;2023-03-14T06:13:36;8.10;99.90
20398;DHT22;10358;49.590;11.030;2023-03-14T06:16:02;8.00;99.90
20398;DHT22;10358;49.590;11.030;2023-03-14T06:18:27;8.00;99.90
20398;DHT22;10358;49.590;11.030;2023-03-14T06:20:54;8.00;99.90
20398;DHT22;10358;49.590;11.030;2023-03-14T06:23:21;8.00;99.90
20398;DHT22;10358;49.590;11.030;2023-03-14T06:25:47;8.10;99.90
20398;DHT22;10358;49.590;11.030;2023-03-14T06:28:12;8.10;99.90
20398;DHT22;10358;49.590;11.030;2023-03-14T06:30:38;8.10;99.90
20398;DHT22;10358;49.590;11.030;2023-03-14T06:33:03;8.20;99.90
20398;DHT22;10358;49.590;11.030;2023-03-14T06:35:29;8.20;99.90
20398;DHT22;10358;49.590;11.030;2023-03-14T06:37:54;8.20;99.90
20398;DHT22;10358;49.590;11.030;2023-03-14T06:40:20;8.30;99.90
20398;DHT22;10358;49.590;11.030;2023-03-14T06:42:46;8.30;99.90
20398;DHT22;10358;49.590;11.030;2023-03-14T06:45:12;8.30;99.90
20398;DHT22;10358;49.590;11.030;2023-03-14T06:47:38;8.40;99.90
20398;DHT22;10358;49.590;11.030;2023-03-14T06:50:05;8.40;99.90
20398;DHT22;10358;49.590;11.030;2023-03-14T06:52:31;8.40;99.90
20398;DHT22;10358;49.590;11.030;2023-03-14T06:54:56;8.50;99.90
20398;DHT22;10358;49.590;11.030;2023-03-14T06:57:22;8.50;99.90
20398;DHT22;10358;49.590;11.030;2023-03-14T06:59:47;8.50;99.90
20398;DHT22;10358;49.590;11.030;2023-03-14T07:02:13;8.50;99.90
20398;DHT22;10358;49.590;11.030;2023-03-14T07:04:38;8.60;99.90
20398;DHT22;10358;49.590;11.030;2023-03-14T07:07:04;8.60;99.90
20398;DHT22;10358;49.590;11.030;2023-03-14T07:09:31;8.60;99.90
20398;DHT22;10358;49.590;11.030;2023-03-14T07:11:56;8.70;99.90
20398;DHT22;10358;49.590;11.030;2023-03-14T07:14:22;8.70;99.90
20398;DHT22;10358;49.590;11.030;2023-03-14T07:16:47;8.70;99.90
20398;DHT22;10358;49.590;11.030;2023-03-14T07:19:13;8.80;99.90
20398;DHT22;10358;49.590;11.030;2023-03-14T07:21:38;8.80;99.90
20398;DHT22;10358;49.590;11.030;2023-03-14T07:24:04;8.80;99.90
20398;DHT22;10358;49.590;11.030;2023-03-14T07:26:29;8.80;99.90
20398;DHT22;10358;49.590;11.030;2023-03-14T07:28:55;8.90;99.90
20398;DHT22;10358;49.590;11.030;2023-03-14T07:31:21;8.90;99.90
20398;DHT22;10358;49.590;11.030;2023-03-14T07:33:46;8.90;99.90
20398;DHT22;10358;49.590;11.030;2023-03-14T07:36:12;9.00;99.90
20398;DHT22;10358;49.590;11.030;2023-03-14T07:38:37;9.00;99.90
20398;DHT22;10358;49.590;11.030;2023-03-14T07:41:04;9.00;99.90
20398;DHT22;10358;49.590;11.030;2023-03-14T07:43:30;9.10;99.90
20398;DHT22;10358;49.590;11.030;2023-03-14T07:45:56;9.10;99.90
20398;DHT22;10358;49.590;11.030;2023-03-14T07:48:22;9.10;99.90
20398;DHT22;10358;49.590;11.030;2023-03-14T07:50:51;9.20;99.90
20398;DHT22;10358;49.590;11.030;2023-03-14T07:53:17;9.20;99.90
20398;DHT22;10358;49.590;11.030;2023-03-14T07:55:42;9.30;99.90
20398;DHT22;10358;49.590;11.030;2023-03-14T07:58:08;9.40;99.90
20398;DHT22;10358;49.590;11.030;2023-03-14T08:00:34;9.50;99.90
20398;DHT22;10358;49.590;11.030;2023-03-14T08:02:59;9.60;99.90
20398;DHT22;10358;49.590;11.030;2023-03-14T08:05:25;9.60;99.90
20398;DHT22;10358;49.590;11.030;2023-03-14T08:07:50;9.70;99.90
20398;DHT22;10358;49.590;11.030;2023-03-14T08:10:16;9.80;99.90
20398;DHT22;10358;49.590;11.030;2023-03-14T08:12:49;9.90;99.90
20398;DHT22;10358;49.590;11.030;2023-03-14T08:15:14;9.90;99.90
20398;DHT22;10358;49.590;11.030;2023-03-14T08:17:40;9.90;99.90
20398;DHT22;10358;49.590;11.030;2023-03-14T08:20:06;9.90;99.90
20398;DHT22;10358;49.590;11.030;2023-03-14T08:22:37;10.00;99.90
20398;DHT22;10358;49.590;11.030;2023-03-14T08:25:03;10.10;99.90
20398;DHT22;10358;49.590;11.030;2023-03-14T08:27:28;10.00;99.90
20398;DHT22;10358;49.590;11.030;2023-03-14T08:29:54;10.10;99.90
20398;DHT22;10358;49.590;11.030;2023-03-14T08:32:20;10.10;99.90
20398;DHT22;10358;49.590;11.030;2023-03-14T08:34:45;10.20;99.90
20398;DHT22;10358;49.590;11.030;2023-03-14T08:37:11;10.20;99.90
20398;DHT22;10358;49.590;11.030;2023-03-14T08:39:37;10.30;99.90
20398;DHT22;10358;49.590;11.030;2023-03-14T08:42:02;10.30;99.90
20398;DHT22;10358;49.590;11.030;2023-03-14T08:44:28;10.40;99.90
20398;DHT22;10358;49.590;11.030;2023-03-14T08:46:54;10.50;99.90
20398;DHT22;10358;49.590;11.030;2023-03-14T08:49:19;10.60;99.90
20398;DHT22;10358;49.590;11.030;2023-03-14T08:51:45;10.60;99.90
20398;DHT22;10358;49.590;11.030;2023-03-14T08:54:11;10.60;99.90
20398;DHT22;10358;49.590;11.030;2023-03-14T08:56:36;10.60;99.90
20398;DHT22;10358;49.590;11.030;2023-03-14T08:59:03;10.70;99.90
20398;DHT22;10358;49.590;11.030;2023-03-14T09:01:29;10.80;99.90
20398;DHT22;10358;49.590;11.030;2023-03-14T09:03:54;10.80;99.90
20398;DHT22;10358;49.590;11.030;2023-03-14T09:06:20;10.80;99.90
20398;DHT22;10358;49.590;11.030;2023-03-14T09:08:45;10.90;99.90
20398;DHT22;10358;49.590;11.030;2023-03-14T09:11:11;11.00;99.90
20398;DHT22;10358;49.590;11.030;2023-03-14T09:13:37;11.10;99.90
20398;DHT22;10358;49.590;11.030;2023-03-14T09:16:03;11.10;99.90
20398;DHT22;10358;49.590;11.030;2023-03-14T09:18:29;11.10;99.90
20398;DHT22;10358;49.590;11.030;2023-03-14T09:20:55;11.10;99.90
20398;DHT22;10358;49.590;11.030;2023-03-14T09:23:21;11.10;99.90
20398;DHT22;10358;49.590;11.030;2023-03-14T09:25:46;11.10;99.90
20398;DHT22;10358;49.590;11.030;2023-03-14T09:28:12;11.10;99.90
20398;DHT22;10358;49.590;11.030;2023-03-14T09:30:38;11.10;99.90
20398;DHT22;10358;49.590;11.030;2023-03-14T09:33:04;11.10;99.90
20398;DHT22;10358;49.590;11.030;2023-03-14T09:35:29;11.10;99.90
20398;DHT22;10358;49.590;11.030;2023-03-14T09:37:55;11.10;99.90
20398;DHT22;10358;49.590;11.030;2023-03-14T09:40:20;11.10;99.90
20398;DHT22;10358;49.590;11.030;2023-03-14T09:42:53;11.20;99.90
20398;DHT22;10358;49.590;11.030;2023-03-14T09:45:33;11.30;99.90
20398;DHT22;10358;49.590;11.030;2023-03-14T09:47:59;11.20;99.90
20398;DHT22;10358;49.590;11.030;2023-03-14T09:50:36;11.20;99.90
20398;DHT22;10358;49.590;11.030;2023-03-14T09:53:06;11.30;99.90
20398;DHT22;10358;49.590;11.030;2023-03-14T09:55:32;11.20;99.90
20398;DHT22;10358;49.590;11.030;2023-03-14T09:58:03;11.20;99.90
20398;DHT22;10358;49.590;11.030;2023-03-14T10:00:31;11.10;99.90
20398;DHT22;10358;49.590;11.030;2023-03-14T10:05:42;11.10;99.90
20398;DHT22;10358;49.590;11.030;2023-03-14T10:08:12;11.10;99.90
20398;DHT22;10358;49.590;11.030;2023-03-14T10:10:37;11.10;99.90
20398;DHT22;10358;49.590;11.030;2023-03-14T10:15:35;11.20;99.90
20398;DHT22;10358;49.590;11.030;2023-03-14T10:18:03;11.20;99.90
20398;DHT22;10358;49.590;11.030;2023-03-14T10:22:58;11.20;99.90
20398;DHT22;10358;49.590;11.030;2023-03-14T10:25:36;11.30;99.90
20398;DHT22;10358;49.590;11.030;2023-03-14T10:28:03;11.30;99.90
20398;DHT22;10358;49.590;11.030;2023-03-14T10:30:41;11.30;99.90
20398;DHT22;10358;49.590;11.030;2023-03-14T10:33:20;11.30;99.90
20398;DHT22;10358;49.590;11.030;2023-03-14T10:35:59;11.30;99.90
20398;DHT22;10358;49.590;11.030;2023-03-14T10:38:30;11.40;99.90
20398;DHT22;10358;49.590;11.030;2023-03-14T10:40:57;11.50;99.90
20398;DHT22;10358;49.590;11.030;2023-03-14T10:43:35;11.60;99.90
20398;DHT22;10358;49.590;11.030;2023-03-14T10:46:31;11.60;99.90
20398;DHT22;10358;49.590;11.030;2023-03-14T10:48:57;11.70;99.90
20398;DHT22;10358;49.590;11.030;2023-03-14T10:51:28;11.80;99.90
20398;DHT22;10358;49.590;11.030;2023-03-14T10:54:01;11.90;99.90
20398;DHT22;10358;49.590;11.030;2023-03-14T10:56:34;12.00;99.90
20398;DHT22;10358;49.590;11.030;2023-03-14T10:59:00;12.10;99.90
20398;DHT22;10358;49.590;11.030;2023-03-14T11:09:58;12.30;99.90
20398;DHT22;10358;49.590;11.030;2023-03-14T11:12:41;12.50;99.90
20398;DHT22;10358;49.590;11.030;2023-03-14T11:15:25;12.60;99.90
20398;DHT22;10358;49.590;11.030;2023-03-14T11:18:30;12.70;99.90
20398;DHT22;10358;49.590;11.030;2023-03-14T11:20:53;12.80;99.90
20398;DHT22;10358;49.590;11.030;2023-03-14T11:23:24;12.90;99.90
20398;DHT22;10358;49.590;11.030;2023-03-14T11:28:57;12.90;99.90
20398;DHT22;10358;49.590;11.030;2023-03-14T11:31:31;12.90;99.90
20398;DHT22;10358;49.590;11.030;2023-03-14T11:34:01;12.90;99.90
20398;DHT22;10358;49.590;11.030;2023-03-14T11:36:35;13.10;99.90
20398;DHT22;10358;49.590;11.030;2023-03-14T11:39:10;13.10;99.90
20398;DHT22;10358;49.590;11.030;2023-03-14T11:41:40;13.30;99.90
20398;DHT22;10358;49.590;11.030;2023-03-14T11:44:36;13.40;99.90
20398;DHT22;10358;49.590;11.030;2023-03-14T11:49:45;13.60;99.90
20398;DHT22;10358;49.590;11.030;2023-03-14T11:52:47;13.60;99.90
20398;DHT22;10358;49.590;11.030;2023-03-14T11:55:19;13.50;99.90
20398;DHT22;10358;49.590;11.030;2023-03-14T11:57:47;13.50;99.90
20398;DHT22;10358;49.590;11.030;2023-03-14T12:00:23;13.60;99.90
20398;DHT22;10358;49.590;11.030;2023-03-14T12:11:11;13.50;99.90
20398;DHT22;10358;49.590;11.030;2023-03-14T12:13:39;13.70;99.90
20398;DHT22;10358;49.590;11.030;2023-03-14T12:16:07;13.70;99.90
20398;DHT22;10358;49.590;11.030;2023-03-14T12:18:45;13.70;99.90
20398;DHT22;10358;49.590;11.030;2023-03-14T12:21:11;13.60;99.90
20398;DHT22;10358;49.590;11.030;2023-03-14T12:28:43;13.60;99.90
20398;DHT22;10358;49.590;11.030;2023-03-14T12:48:03;13.70;99.90
20398;DHT22;10358;49.590;11.030;2023-03-14T12:50:42;13.70;99.90
20398;DHT22;10358;49.590;11.030;2023-03-14T12:55:56;13.30;99.90
20398;DHT22;10358;49.590;11.030;2023-03-14T13:01:05;13.10;99.90
20398;DHT22;10358;49.590;11.030;2023-03-14T13:03:54;13.00;99.90
20398;DHT22;10358;49.590;11.030;2023-03-14T13:11:53;12.40;99.90
20398;DHT22;10358;49.590;11.030;2023-03-14T13:14:18;12.30;99.90
20398;DHT22;10358;49.590;11.030;2023-03-14T13:16:46;12.20;99.90
20398;DHT22;10358;49.590;11.030;2023-03-14T13:19:26;12.20;99.90
20398;DHT22;10358;49.590;11.030;2023-03-14T13:22:02;12.10;99.90
20398;DHT22;10358;49.590;11.030;2023-03-14T13:24:28;12.00;99.90
20398;DHT22;10358;49.590;11.030;2023-03-14T13:26:56;11.90;99.90
20398;DHT22;10358;49.590;11.030;2023-03-14T13:29:33;11.90;99.90
20398;DHT22;10358;49.590;11.030;2023-03-14T13:32:12;11.70;99.90
20398;DHT22;10358;49.590;11.030;2023-03-14T13:34:38;11.50;99.90
20398;DHT22;10358;49.590;11.030;2023-03-14T13:37:04;11.30;99.90
20398;DHT22;10358;49.590;11.030;2023-03-14T13:39:29;11.10;99.90
20398;DHT22;10358;49.590;11.030;2023-03-14T13:42:00;11.00;99.90
20398;DHT22;10358;49.590;11.030;2023-03-14T13:44:38;10.90;99.90
20398;DHT22;10358;49.590;11.030;2023-03-14T13:47:09;10.80;99.90
20398;DHT22;10358;49.590;11.030;2023-03-14T13:49:36;10.80;99.90
20398;DHT22;10358;49.590;11.030;2023-03-14T13:52:03;10.70;99.90
20398;DHT22;10358;49.590;11.030;2023-03-14T13:54:31;10.70;99.90
20398;DHT22;10358;49.590;11.030;2023-03-14T13:57:04;10.70;99.90
20398;DHT22;10358;49.590;11.030;2023-03-14T13:59:34;10.70;99.90
20398;DHT22;10358;49.590;11.030;2023-03-14T14:02:10;10.60;99.90
20398;DHT22;10358;49.590;11.030;2023-03-14T14:04:38;10.50;99.90
20398;DHT22;10358;49.590;11.030;2023-03-14T14:07:13;10.50;99.90
20398;DHT22;10358;49.590;11.030;2023-03-14T14:09:49;10.50;99.90
20398;DHT22;10358;49.590;11.030;2023-03-14T14:12:31;10.40;99.90
20398;DHT22;10358;49.590;11.030;2023-03-14T14:15:04;10.30;99.90
20398;DHT22;10358;49.590;11.030;2023-03-14T14:17:36;10.30;99.90
20398;DHT22;10358;49.590;11.030;2023-03-14T14:20:06;10.20;99.90
20398;DHT22;10358;49.590;11.030;2023-03-14T14:22:32;10.20;99.90
20398;DHT22;10358;49.590;11.030;2023-03-14T14:24:59;10.10;99.90
20398;DHT22;10358;49.590;11.030;2023-03-14T14:27:38;10.00;99.90
20398;DHT22;10358;49.590;11.030;2023-03-14T14:30:25;10.00;99.90
20398;DHT22;10358;49.590;11.030;2023-03-14T14:32:52;9.90;99.90
20398;DHT22;10358;49.590;11.030;2023-03-14T14:35:34;9.90;99.90
20398;DHT22;10358;49.590;11.030;2023-03-14T14:38:01;9.80;99.90
20398;DHT22;10358;49.590;11.030;2023-03-14T14:40:28;9.60;99.90
20398;DHT22;10358;49.590;11.030;2023-03-14T14:43:02;9.20;99.90
20398;DHT22;10358;49.590;11.030;2023-03-14T14:45:28;8.90;99.90
20398;DHT22;10358;49.590;11.030;2023-03-14T14:48:26;8.60;99.90
20398;DHT22;10358;49.590;11.030;2023-03-14T14:50:59;8.40;99.90
20398;DHT22;10358;49.590;11.030;2023-03-14T14:53:44;8.20;99.90
20398;DHT22;10358;49.590;11.030;2023-03-14T14:56:16;8.20;99.90
20398;DHT22;10358;49.590;11.030;2023-03-14T14:58:45;8.10;99.90
20398;DHT22;10358;49.590;11.030;2023-03-14T15:03:44;8.10;99.90
20398;DHT22;10358;49.590;11.030;2023-03-14T15:06:14;8.10;99.90
20398;DHT22;10358;49.590;11.030;2023-03-14T15:08:43;8.00;99.90
20398;DHT22;10358;49.590;11.030;2023-03-14T15:13:41;8.00;99.90
20398;DHT22;10358;49.590;11.030;2023-03-14T15:16:16;8.00;99.90
20398;DHT22;10358;49.590;11.030;2023-03-14T15:18:43;8.00;99.90
20398;DHT22;10358;49.590;11.030;2023-03-14T15:21:10;8.00;99.90
20398;DHT22;10358;49.590;11.030;2023-03-14T15:23:36;7.90;99.90
20398;DHT22;10358;49.590;11.030;2023-03-14T15:26:01;7.80;99.90
20398;DHT22;10358;49.590;11.030;2023-03-14T15:28:29;7.70;99.90
20398;DHT22;10358;49.590;11.030;2023-03-14T15:30:57;7.60;99.90
20398;DHT22;10358;49.590;11.030;2023-03-14T15:33:24;7.50;99.90
20398;DHT22;10358;49.590;11.030;2023-03-14T15:35:50;7.40;99.90
20398;DHT22;10358;49.590;11.030;2023-03-14T15:38:19;7.30;99.90
20398;DHT22;10358;49.590;11.030;2023-03-14T15:40:51;7.30;99.90
20398;DHT22;10358;49.590;11.030;2023-03-14T15:43:18;7.30;99.90
20398;DHT22;10358;49.590;11.030;2023-03-14T15:45:43;7.20;99.90
20398;DHT22;10358;49.590;11.030;2023-03-14T15:48:17;7.20;99.90
20398;DHT22;10358;49.590;11.030;2023-03-14T15:50:43;7.20;99.90
20398;DHT22;10358;49.590;11.030;2023-03-14T15:53:09;7.30;99.90
20398;DHT22;10358;49.590;11.030;2023-03-14T15:55:35;7.20;99.90
20398;DHT22;10358;49.590;11.030;2023-03-14T15:58:00;7.20;99.90
20398;DHT22;10358;49.590;11.030;2023-03-14T16:00:28;7.10;99.90
20398;DHT22;10358;49.590;11.030;2023-03-14T16:02:54;7.10;99.90
20398;DHT22;10358;49.590;11.030;2023-03-14T16:05:20;7.00;99.90
20398;DHT22;10358;49.590;11.030;2023-03-14T16:07:46;6.90;99.90
20398;DHT22;10358;49.590;11.030;2023-03-14T16:10:13;6.90;99.90
20398;DHT22;10358;49.590;11.030;2023-03-14T16:12:39;6.80;99.90
20398;DHT22;10358;49.590;11.030;2023-03-14T16:15:05;6.80;99.90
20398;DHT22;10358;49.590;11.030;2023-03-14T16:17:32;6.70;99.90
20398;DHT22;10358;49.590;11.030;2023-03-14T16:19:57;6.70;99.90
20398;DHT22;10358;49.590;11.030;2023-03-14T16:22:23;6.60;99.90
20398;DHT22;10358;49.590;11.030;2023-03-14T16:24:48;6.50;99.90
20398;DHT22;10358;49.590;11.030;2023-03-14T16:27:14;6.40;99.90
20398;DHT22;10358;49.590;11.030;2023-03-14T16:29:41;6.30;99.90
20398;DHT22;10358;49.590;11.030;2023-03-14T16:32:07;6.30;99.90
20398;DHT22;10358;49.590;11.030;2023-03-14T16:34:32;6.30;99.90
20398;DHT22;10358;49.590;11.030;2023-03-14T16:36:58;6.40;99.90
20398;DHT22;10358;49.590;11.030;2023-03-14T16:39:23;6.40;99.90
20398;DHT22;10358;49.590;11.030;2023-03-14T16:41:49;6.40;99.90